createdAt,value
2019-06-10T00:02:07.302Z,101700.00
2019-06-10T00:04:41.588Z,101707.00
2019-06-10T00:07:14.276Z,101707.00
2019-06-10T00:09:48.427Z,101706.00
2019-06-10T00:12:21.477Z,101705.00
2019-06-10T00:14:54.420Z,101702.00
2019-06-10T00:17:27.754Z,101692.00
2019-06-10T00:20:02.417Z,101682.00
2019-06-10T00:22:34.842Z,101682.00
2019-06-10T00:25:11.987Z,101681.00
2019-06-10T00:27:45.411Z,101678.00
2019-06-10T00:30:20.681Z,101686.00
2019-06-10T00:32:52.469Z,101674.00
2019-06-10T00:35:25.537Z,101671.00
2019-06-10T00:37:59.579Z,101665.00
2019-06-10T00:40:33.078Z,101659.00
2019-06-10T00:43:07.289Z,101658.00
2019-06-10T00:45:40.990Z,101656.00
2019-06-10T00:48:25.034Z,101658.00
2019-06-10T00:50:48.369Z,101645.00
2019-06-10T00:53:21.356Z,101657.00
2019-06-10T00:55:54.435Z,101656.00
2019-06-10T00:58:27.317Z,101653.00
2019-06-10T01:01:02.629Z,101649.00
2019-06-10T01:03:35.966Z,101641.00
2019-06-10T01:06:14.628Z,101635.00
2019-06-10T01:08:44.341Z,101639.00
2019-06-10T01:11:25.852Z,101639.00
2019-06-10T01:13:51.738Z,101640.00
2019-06-10T01:16:25.400Z,101641.00
2019-06-10T01:18:58.334Z,101642.00
2019-06-10T01:21:31.491Z,101644.00
2019-06-10T01:24:05.040Z,101639.00
2019-06-10T01:26:38.161Z,101635.00
2019-06-10T01:29:13.651Z,101637.00
2019-06-10T01:31:45.528Z,101629.00
2019-06-10T01:34:18.545Z,101638.00
2019-06-10T01:36:53.525Z,101622.00
2019-06-10T01:39:26.827Z,101623.00
2019-06-10T01:42:00.616Z,101620.00
2019-06-10T01:44:33.508Z,101616.00
2019-06-10T01:47:08.634Z,101618.00
2019-06-10T01:49:41.943Z,101619.00
2019-06-10T01:52:16.325Z,101623.00
2019-06-10T01:54:51.472Z,101626.00
2019-06-10T01:57:23.818Z,101620.00
2019-06-10T01:59:56.752Z,101619.00
2019-06-10T02:02:35.018Z,101628.00
2019-06-10T02:05:04.289Z,101620.00
2019-06-10T02:07:37.344Z,101632.00
2019-06-10T02:10:12.414Z,101617.00
2019-06-10T02:12:45.948Z,101615.00
2019-06-10T02:15:21.270Z,101617.00
2019-06-10T02:17:53.551Z,101626.00
2019-06-10T02:20:26.793Z,101628.00
2019-06-10T02:23:02.025Z,101626.00
2019-06-10T02:25:35.033Z,101625.00
2019-06-10T02:28:08.168Z,101626.00
2019-06-10T02:30:50.276Z,101631.00
2019-06-10T02:33:19.014Z,101623.00
2019-06-10T02:35:53.852Z,101624.00
2019-06-10T02:38:33.696Z,101617.00
2019-06-10T02:41:04.417Z,101621.00
2019-06-10T02:43:38.394Z,101622.00
2019-06-10T02:46:13.638Z,101622.00
2019-06-10T02:48:45.581Z,101618.00
2019-06-10T02:51:22.068Z,101633.00
2019-06-10T02:53:53.783Z,101630.00
2019-06-10T02:56:30.882Z,101622.00
2019-06-10T02:59:03.191Z,101620.00
2019-06-10T03:01:38.169Z,101621.00
2019-06-10T03:04:09.127Z,101620.00
2019-06-10T03:06:44.752Z,101624.00
2019-06-10T03:09:16.526Z,101623.00
2019-06-10T03:11:53.330Z,101625.00
2019-06-10T03:14:25.365Z,101631.00
2019-06-10T03:16:59.419Z,101643.00
2019-06-10T03:19:44.144Z,101640.00
2019-06-10T03:22:07.172Z,101626.00
2019-06-10T03:24:42.150Z,101648.00
2019-06-10T03:27:16.321Z,101648.00
2019-06-10T03:29:52.571Z,101648.00
2019-06-10T03:32:32.154Z,101644.00
2019-06-10T03:34:58.926Z,101639.00
2019-06-10T03:37:32.874Z,101648.00
2019-06-10T03:40:08.409Z,101644.00
2019-06-10T03:42:42.712Z,101648.00
2019-06-10T03:45:17.159Z,101651.00
2019-06-10T03:47:49.952Z,101656.00
2019-06-10T03:50:25.922Z,101650.00
2019-06-10T03:53:01.126Z,101641.00
2019-06-10T03:55:33.293Z,101651.00
2019-06-10T03:58:06.421Z,101642.00
2019-06-10T04:00:39.429Z,101652.00
2019-06-10T04:03:12.269Z,101650.00
2019-06-10T04:05:45.173Z,101650.00
2019-06-10T04:08:19.419Z,101649.00
2019-06-10T04:10:54.115Z,101654.00
2019-06-10T04:13:28.363Z,101653.00
2019-06-10T04:16:02.321Z,101651.00
2019-06-10T04:18:35.530Z,101645.00
2019-06-10T04:21:08.931Z,101647.00
2019-06-10T04:23:42.577Z,101659.00
2019-06-10T04:26:15.593Z,101667.00
2019-06-10T04:28:48.561Z,101643.00
2019-06-10T04:31:23.296Z,101630.00
2019-06-10T04:33:55.752Z,101639.00
2019-06-10T04:36:29.411Z,101651.00
2019-06-10T04:39:03.269Z,101663.00
2019-06-10T04:41:37.554Z,101673.00
2019-06-10T04:44:12.963Z,101654.00
2019-06-10T04:46:44.729Z,101661.00
2019-06-10T04:49:18.732Z,101662.00
2019-06-10T04:51:52.402Z,101659.00
2019-06-10T04:54:26.732Z,101662.00
2019-06-10T04:57:02.216Z,101660.00
2019-06-10T04:59:35.226Z,101665.00
2019-06-10T05:02:08.941Z,101661.00
2019-06-10T05:04:42.610Z,101662.00
2019-06-10T05:07:16.504Z,101657.00
2019-06-10T05:09:52.376Z,101666.00
2019-06-10T05:12:26.455Z,101673.00
2019-06-10T05:15:00.131Z,101681.00
2019-06-10T05:17:37.249Z,101670.00
2019-06-10T05:20:14.561Z,101682.00
2019-06-10T05:22:48.368Z,101684.00
2019-06-10T05:25:22.774Z,101681.00
2019-06-10T05:27:56.703Z,101695.00
2019-06-10T05:30:31.771Z,101689.00
2019-06-10T05:33:05.174Z,101698.00
2019-06-10T05:35:39.026Z,101694.00
2019-06-10T05:38:13.008Z,101700.00
2019-06-10T05:40:46.854Z,101705.00
2019-06-10T05:43:22.318Z,101700.00
2019-06-10T05:45:55.413Z,101708.00
2019-06-10T05:48:30.105Z,101702.00
2019-06-10T05:51:06.699Z,101701.00
2019-06-10T05:53:38.303Z,101695.00
2019-06-10T05:56:12.853Z,101694.00
2019-06-10T05:58:46.670Z,101705.00
2019-06-10T06:01:22.412Z,101703.00
2019-06-10T06:03:56.409Z,101690.00
2019-06-10T06:06:32.362Z,101704.00
2019-06-10T06:09:04.606Z,101704.00
2019-06-10T06:11:38.195Z,101700.00
2019-06-10T06:14:13.242Z,101700.00
2019-06-10T06:16:46.968Z,101707.00
2019-06-10T06:19:22.986Z,101695.00
2019-06-10T06:21:56.280Z,101703.00
2019-06-10T06:24:32.742Z,101703.00
2019-06-10T06:27:06.525Z,101707.00
2019-06-10T06:29:40.141Z,101703.00
2019-06-10T06:32:13.922Z,101709.00
2019-06-10T06:34:48.114Z,101701.00
2019-06-10T06:37:23.138Z,101707.00
2019-06-10T06:39:56.442Z,101704.00
2019-06-10T06:42:32.361Z,101707.00
2019-06-10T06:45:05.030Z,101708.00
2019-06-10T06:47:39.127Z,101712.00
2019-06-10T06:50:13.148Z,101709.00
2019-06-10T06:53:18.684Z,101717.00
2019-06-10T06:55:23.402Z,101724.00
2019-06-10T06:57:57.197Z,101724.00
2019-06-10T07:00:59.320Z,101736.00
2019-06-10T07:03:14.698Z,101742.00
2019-06-10T07:05:48.926Z,101743.00
2019-06-10T07:08:22.887Z,101743.00
2019-06-10T07:10:57.228Z,101742.00
2019-06-10T07:13:35.411Z,101749.00
2019-06-10T07:16:07.180Z,101742.00
2019-06-10T07:18:48.758Z,101750.00
2019-06-10T07:21:15.290Z,101753.00
2019-06-10T07:23:52.594Z,101744.00
2019-06-10T07:26:25.570Z,101752.00
2019-06-10T07:28:59.238Z,101750.00
2019-06-10T07:31:35.274Z,101747.00
2019-06-10T07:34:07.814Z,101749.00
2019-06-10T07:36:43.565Z,101745.00
2019-06-10T07:39:16.227Z,101746.00
2019-06-10T07:41:52.622Z,101756.00
2019-06-10T07:44:24.651Z,101760.00
2019-06-10T07:46:58.286Z,101775.00
2019-06-10T07:49:33.465Z,101758.00
2019-06-10T07:52:15.514Z,101766.00
2019-06-10T07:54:43.426Z,101758.00
2019-06-10T07:57:17.782Z,101764.00
2019-06-10T07:59:52.248Z,101759.00
2019-06-10T08:02:26.038Z,101770.00
2019-06-10T08:04:59.641Z,101757.00
2019-06-10T08:07:33.502Z,101768.00
2019-06-10T08:10:08.881Z,101769.00
2019-06-10T08:12:46.247Z,101765.00
2019-06-10T08:15:18.109Z,101765.00
2019-06-10T08:17:53.081Z,101762.00
2019-06-10T08:20:45.062Z,101770.00
2019-06-10T08:23:19.797Z,101763.00
2019-06-10T08:25:58.073Z,101766.00
2019-06-10T08:28:33.311Z,101767.00
2019-06-10T08:31:07.844Z,101771.00
2019-06-10T08:33:44.287Z,101773.00
2019-06-10T08:36:16.636Z,101776.00
2019-06-10T08:38:52.434Z,101770.00
2019-06-10T08:41:25.331Z,101771.00
2019-06-10T08:43:59.174Z,101765.00
2019-06-10T08:46:32.910Z,101761.00
2019-06-10T08:49:07.001Z,101767.00
2019-06-10T08:51:43.267Z,101770.00
2019-06-10T08:54:15.222Z,101771.00
2019-06-10T08:56:50.709Z,101781.00
2019-06-10T08:59:24.417Z,101770.00
2019-06-10T09:02:02.897Z,101763.00
2019-06-10T09:04:35.508Z,101775.00
2019-06-10T09:07:09.041Z,101766.00
2019-06-10T09:09:45.750Z,101775.00
2019-06-10T09:12:30.369Z,101766.00
2019-06-10T09:14:53.203Z,101775.00
2019-06-10T09:17:26.983Z,101766.00
2019-06-10T09:20:02.928Z,101765.00
2019-06-10T09:22:36.190Z,101766.00
2019-06-10T09:25:13.437Z,101775.00
2019-06-10T09:27:49.721Z,101772.00
2019-06-10T09:30:24.206Z,101781.00
2019-06-10T09:33:00.886Z,101772.00
2019-06-10T09:35:32.636Z,101765.00
2019-06-10T09:38:06.225Z,101765.00
2019-06-10T09:41:00.699Z,101768.00
2019-06-10T09:43:28.315Z,101771.00
2019-06-10T09:46:03.572Z,101767.00
2019-06-10T09:48:37.670Z,101768.00
2019-06-10T09:51:12.500Z,101767.00
2019-06-10T09:53:54.602Z,101767.00
2019-06-10T09:56:22.833Z,101767.00
2019-06-10T09:58:55.651Z,101771.00
2019-06-10T10:01:29.560Z,101774.00
2019-06-10T10:04:04.781Z,101764.00
2019-06-10T10:06:39.145Z,101761.00
2019-06-10T10:09:13.740Z,101766.00
2019-06-10T10:11:48.807Z,101770.00
2019-06-10T10:14:23.035Z,101773.00
2019-06-10T10:17:00.204Z,101758.00
2019-06-10T10:19:31.901Z,101765.00
2019-06-10T10:22:05.494Z,101768.00
2019-06-10T10:24:39.196Z,101774.00
2019-06-10T10:27:13.412Z,101773.00
2019-06-10T10:29:50.031Z,101779.00
2019-06-10T10:32:23.319Z,101775.00
2019-06-10T10:34:57.359Z,101776.00
2019-06-10T10:37:32.730Z,101782.00
2019-06-10T10:40:06.186Z,101778.00
2019-06-10T10:42:49.815Z,101774.00
2019-06-10T10:45:22.719Z,101772.00
2019-06-10T10:47:57.490Z,101777.00
2019-06-10T10:50:33.956Z,101768.00
2019-06-10T10:53:06.664Z,101768.00
2019-06-10T10:55:42.095Z,101762.00
2019-06-10T10:58:15.128Z,101766.00
2019-06-10T11:00:51.609Z,101774.00
2019-06-10T11:03:24.321Z,101763.00
2019-06-10T11:06:00.852Z,101772.00
2019-06-10T11:08:33.685Z,101758.00
2019-06-10T11:11:07.992Z,101756.00
2019-06-10T11:13:43.257Z,101769.00
2019-06-10T11:16:17.745Z,101764.00
2019-06-10T11:18:53.774Z,101769.00
2019-06-10T11:21:26.212Z,101757.00
2019-06-10T11:24:02.274Z,101768.00
2019-06-10T11:26:35.807Z,101765.00
2019-06-10T11:29:09.861Z,101764.00
2019-06-10T11:31:44.290Z,101763.00
2019-06-10T11:34:19.753Z,101758.00
2019-06-10T11:36:55.089Z,101763.00
2019-06-10T11:39:27.327Z,101757.00
2019-06-10T11:42:03.674Z,101752.00
2019-06-10T11:44:35.955Z,101759.00
2019-06-10T11:47:12.542Z,101751.00
2019-06-10T11:49:44.559Z,101759.00
2019-06-10T11:52:18.706Z,101754.00
2019-06-10T11:55:04.160Z,101750.00
2019-06-10T11:57:27.988Z,101757.00
2019-06-10T12:00:08.855Z,101759.00
2019-06-10T12:02:36.473Z,101755.00
2019-06-10T12:05:12.839Z,101751.00
2019-06-10T12:07:46.422Z,101762.00
2019-06-10T12:10:20.105Z,101756.00
2019-06-10T12:12:55.485Z,101759.00
2019-06-10T12:15:28.578Z,101759.00
2019-06-10T12:18:07.889Z,101767.00
2019-06-10T12:20:37.262Z,101765.00
2019-06-10T12:23:12.696Z,101762.00
2019-06-10T12:25:47.880Z,101757.00
2019-06-10T12:28:22.029Z,101753.00
2019-06-10T12:30:58.251Z,101751.00
2019-06-10T12:33:33.323Z,101748.00
2019-06-10T12:36:07.281Z,101744.00
2019-06-10T12:38:43.054Z,101741.00
2019-06-10T12:41:15.560Z,101754.00
2019-06-10T12:43:49.131Z,101746.00
2019-06-10T12:46:23.354Z,101753.00
2019-06-10T12:49:00.088Z,101748.00
2019-06-10T12:51:32.710Z,101737.00
2019-06-10T12:54:06.964Z,101738.00
2019-06-10T12:56:42.170Z,101734.00
2019-06-10T12:59:15.410Z,101739.00
2019-06-10T13:01:49.502Z,101738.00
2019-06-10T13:04:23.616Z,101745.00
2019-06-10T13:07:05.002Z,101734.00
2019-06-10T13:09:37.489Z,101736.00
2019-06-10T13:12:12.966Z,101736.00
2019-06-10T13:14:46.078Z,101740.00
2019-06-10T13:17:19.941Z,101741.00
2019-06-10T13:19:54.815Z,101748.00
2019-06-10T13:22:28.245Z,101752.00
2019-06-10T13:25:02.691Z,101742.00
2019-06-10T13:27:36.480Z,101746.00
2019-06-10T13:30:11.039Z,101744.00
2019-06-10T13:32:45.056Z,101746.00
2019-06-10T13:35:19.875Z,101745.00
2019-06-10T13:37:53.465Z,101736.00
2019-06-10T13:40:27.344Z,101735.00
2019-06-10T13:43:01.744Z,101736.00
2019-06-10T13:45:35.935Z,101743.00
2019-06-10T13:48:11.539Z,101734.00
2019-06-10T13:50:44.187Z,101741.00
2019-06-10T13:53:17.933Z,101746.00
2019-06-10T13:56:02.587Z,101736.00
2019-06-10T13:58:26.453Z,101730.00
2019-06-10T14:01:00.024Z,101728.00
2019-06-10T14:03:33.579Z,101728.00
2019-06-10T14:06:21.057Z,101716.00
2019-06-10T14:08:43.218Z,101719.00
2019-06-10T14:11:18.702Z,101719.00
2019-06-10T14:13:52.685Z,101716.00
2019-06-10T14:16:46.099Z,101721.00
2019-06-10T14:19:20.048Z,101711.00
2019-06-10T14:21:53.522Z,101716.00
2019-06-10T14:24:27.247Z,101712.00
2019-06-10T14:27:02.870Z,101712.00
2019-06-10T14:29:35.810Z,101711.00
2019-06-10T14:32:09.484Z,101714.00
2019-06-10T14:34:43.006Z,101700.00
2019-06-10T14:37:31.859Z,101713.00
2019-06-10T14:39:52.906Z,101699.00
2019-06-10T14:42:26.274Z,101701.00
2019-06-10T14:44:59.930Z,101699.00
2019-06-10T14:47:33.544Z,101693.00
2019-06-10T14:50:08.807Z,101700.00
2019-06-10T14:52:42.813Z,101698.00
2019-06-10T14:55:18.347Z,101701.00
2019-06-10T14:57:53.262Z,101690.00
2019-06-10T15:00:26.155Z,101693.00
2019-06-10T15:03:01.803Z,101687.00
2019-06-10T15:05:34.700Z,101685.00
2019-06-10T15:08:09.270Z,101676.00
2019-06-10T15:10:43.065Z,101678.00
2019-06-10T15:13:16.614Z,101674.00
2019-06-10T15:15:52.945Z,101675.00
2019-06-10T15:18:26.933Z,101664.00
2019-06-10T15:21:02.745Z,101665.00
2019-06-10T15:23:35.568Z,101646.00
2019-06-10T15:26:09.959Z,101652.00
2019-06-10T15:28:43.698Z,101650.00
2019-06-10T15:31:18.304Z,101657.00
2019-06-10T15:33:52.476Z,101648.00
2019-06-10T15:36:29.171Z,101643.00
2019-06-10T15:39:02.776Z,101649.00
2019-06-10T15:41:36.443Z,101648.00
2019-06-10T15:44:10.305Z,101648.00
2019-06-10T15:46:45.127Z,101648.00
2019-06-10T15:49:20.970Z,101643.00
2019-06-10T15:51:53.612Z,101645.00
2019-06-10T15:54:27.177Z,101645.00
2019-06-10T15:57:02.991Z,101632.00
2019-06-10T15:59:35.370Z,101628.00
2019-06-10T16:02:08.995Z,101637.00
2019-06-10T16:04:43.200Z,101628.00
2019-06-10T16:07:17.708Z,101641.00
2019-06-10T16:09:53.373Z,101632.00
2019-06-10T16:12:26.986Z,101636.00
2019-06-10T16:15:02.641Z,101629.00
2019-06-10T16:17:36.339Z,101627.00
2019-06-10T16:20:14.469Z,101627.00
2019-06-10T16:22:48.399Z,101633.00
2019-06-10T16:25:26.082Z,101625.00
2019-06-10T16:27:56.714Z,101626.00
2019-06-10T16:30:30.472Z,101620.00
2019-06-10T16:33:04.225Z,101621.00
2019-06-10T16:35:37.916Z,101609.00
2019-06-10T16:38:12.697Z,101614.00
2019-06-10T16:40:46.326Z,101608.00
2019-06-10T16:43:24.076Z,101607.00
2019-06-10T16:45:56.994Z,101615.00
2019-06-10T16:48:33.091Z,101615.00
2019-06-10T16:51:05.270Z,101612.00
2019-06-10T16:53:39.039Z,101607.00
2019-06-10T16:56:13.598Z,101612.00
2019-06-10T16:58:47.332Z,101617.00
2019-06-10T17:01:25.047Z,101609.00
2019-06-10T17:03:56.258Z,101622.00
2019-06-10T17:06:32.366Z,101618.00
2019-06-10T17:09:04.866Z,101609.00
2019-06-10T17:11:38.578Z,101615.00
2019-06-10T17:14:12.572Z,101614.00
2019-06-10T17:16:46.576Z,101621.00
2019-06-10T17:19:21.232Z,101617.00
2019-06-10T17:21:55.540Z,101625.00
2019-06-10T17:24:30.577Z,101622.00
2019-06-10T17:27:04.042Z,101624.00
2019-06-10T17:29:37.578Z,101614.00
2019-06-10T17:32:13.133Z,101614.00
2019-06-10T17:34:46.059Z,101620.00
2019-06-10T17:37:20.307Z,101621.00
2019-06-10T17:39:53.902Z,101621.00
2019-06-10T17:42:33.308Z,101622.00
2019-06-10T17:45:02.668Z,101615.00
2019-06-10T17:47:37.813Z,101622.00
2019-06-10T17:50:12.601Z,101619.00
2019-06-10T17:52:46.717Z,101614.00
2019-06-10T17:55:20.201Z,101609.00
2019-06-10T17:57:53.796Z,101604.00
2019-06-10T18:00:27.874Z,101606.00
2019-06-10T18:03:03.727Z,101607.00
2019-06-10T18:05:36.698Z,101604.00
2019-06-10T18:08:12.944Z,101605.00
2019-06-10T18:10:45.644Z,101608.00
2019-06-10T18:13:19.336Z,101604.00
2019-06-10T18:15:53.397Z,101606.00
2019-06-10T18:18:28.338Z,101602.00
2019-06-10T18:21:03.358Z,101607.00
2019-06-10T18:23:37.585Z,101604.00
2019-06-10T18:26:12.395Z,101606.00
2019-06-10T18:29:00.822Z,101608.00
2019-06-10T18:31:23.128Z,101613.00
2019-06-10T18:33:58.645Z,101622.00
2019-06-10T18:36:33.112Z,101613.00
2019-06-10T18:39:07.835Z,101613.00
2019-06-10T18:41:41.993Z,101603.00
2019-06-10T18:44:22.487Z,101607.00
2019-06-10T18:46:50.345Z,101608.00
2019-06-10T18:49:24.030Z,101618.00
2019-06-10T18:51:57.653Z,101614.00
2019-06-10T18:54:33.964Z,101618.00
2019-06-10T18:57:06.059Z,101612.00
2019-06-10T18:59:39.716Z,101615.00
2019-06-10T19:02:13.267Z,101615.00
2019-06-10T19:04:46.906Z,101613.00
2019-06-10T19:07:22.557Z,101616.00
2019-06-10T19:09:55.173Z,101608.00
2019-06-10T19:12:29.175Z,101612.00
2019-06-10T19:15:02.932Z,101612.00
2019-06-10T19:17:40.458Z,101624.00
2019-06-10T19:20:15.051Z,101618.00
2019-06-10T19:22:48.584Z,101608.00
2019-06-10T19:25:22.664Z,101621.00
2019-06-10T19:27:56.273Z,101615.00
2019-06-10T19:30:34.033Z,101596.00
2019-06-10T19:33:06.032Z,101619.00
2019-06-10T19:35:42.288Z,101612.00
2019-06-10T19:38:15.667Z,101616.00
2019-06-10T19:40:49.230Z,101613.00
2019-06-10T19:43:22.791Z,101605.00
2019-06-10T19:45:57.781Z,101603.00
2019-06-10T19:48:33.688Z,101612.00
2019-06-10T19:51:06.218Z,101616.00
2019-06-10T19:53:42.201Z,101623.00
2019-06-10T19:56:14.410Z,101615.00
2019-06-10T19:58:48.042Z,101617.00
2019-06-10T20:01:22.568Z,101622.00
2019-06-10T20:03:56.280Z,101621.00
2019-06-10T20:06:32.089Z,101623.00
2019-06-10T20:09:05.166Z,101627.00
2019-06-10T20:11:38.808Z,101626.00
2019-06-10T20:14:12.878Z,101630.00
2019-06-10T20:16:46.586Z,101625.00
2019-06-10T20:19:22.261Z,101625.00
2019-06-10T20:21:55.119Z,101633.00
2019-06-10T20:24:29.187Z,101628.00
2019-06-10T20:27:03.620Z,101629.00
2019-06-10T20:29:37.842Z,101622.00
2019-06-10T20:32:11.476Z,101622.00
2019-06-10T20:34:45.241Z,101631.00
2019-06-10T20:37:18.889Z,101640.00
2019-06-10T20:39:53.861Z,101632.00
2019-06-10T20:42:27.185Z,101632.00
2019-06-10T20:45:02.800Z,101635.00
2019-06-10T20:47:35.480Z,101636.00
2019-06-10T20:50:12.941Z,101638.00
2019-06-10T20:52:46.354Z,101628.00
2019-06-10T20:55:23.168Z,101623.00
2019-06-10T20:58:03.459Z,101633.00
2019-06-10T21:00:45.623Z,101638.00
2019-06-10T21:03:15.418Z,101631.00
2019-06-10T21:05:50.381Z,101634.00
2019-06-10T21:08:24.165Z,101639.00
2019-06-10T21:10:57.809Z,101635.00
2019-06-10T21:13:32.978Z,101627.00
2019-06-10T21:16:06.468Z,101635.00
2019-06-10T21:18:40.290Z,101639.00
2019-06-10T21:21:14.040Z,101637.00
2019-06-10T21:23:48.838Z,101639.00
2019-06-10T21:26:23.576Z,101638.00
2019-06-10T21:28:57.442Z,101635.00
2019-06-10T21:31:33.981Z,101638.00
2019-06-10T21:34:08.319Z,101640.00
2019-06-10T21:36:43.322Z,101637.00
2019-06-10T21:39:17.019Z,101654.00
2019-06-10T21:41:52.970Z,101646.00
2019-06-10T21:44:25.467Z,101647.00
2019-06-10T21:46:59.224Z,101641.00
2019-06-10T21:49:33.811Z,101646.00
2019-06-10T21:52:07.628Z,101655.00
2019-06-10T21:54:42.574Z,101657.00
2019-06-10T21:57:16.291Z,101649.00
2019-06-10T21:59:51.496Z,101661.00
2019-06-10T22:02:25.958Z,101650.00
2019-06-10T22:04:59.586Z,101648.00
2019-06-10T22:07:33.078Z,101649.00
2019-06-10T22:10:07.619Z,101658.00
2019-06-10T22:12:42.203Z,101654.00
2019-06-10T22:15:16.207Z,101654.00
2019-06-10T22:17:52.939Z,101659.00
2019-06-10T22:20:25.624Z,101649.00
2019-06-10T22:22:59.355Z,101644.00
2019-06-10T22:25:33.744Z,101643.00
2019-06-10T22:28:07.508Z,101647.00
2019-06-10T22:30:43.095Z,101642.00
2019-06-10T22:33:15.946Z,101626.00
2019-06-10T22:35:49.838Z,101644.00
2019-06-10T22:38:23.273Z,101632.00
2019-06-10T22:40:57.021Z,101627.00
2019-06-10T22:43:32.148Z,101622.00
2019-06-10T22:46:05.405Z,101621.00
2019-06-10T22:48:39.079Z,101621.00
2019-06-10T22:51:13.359Z,101622.00
2019-06-10T22:53:48.253Z,101626.00
2019-06-10T22:56:22.253Z,101617.00
2019-06-10T22:58:57.298Z,101615.00
2019-06-10T23:01:37.024Z,101614.00
2019-06-10T23:04:05.649Z,101621.00
2019-06-10T23:06:39.390Z,101606.00
2019-06-10T23:09:14.262Z,101618.00
2019-06-10T23:11:48.510Z,101615.00
2019-06-10T23:14:22.750Z,101616.00
2019-06-10T23:16:58.154Z,101616.00
2019-06-10T23:19:32.970Z,101599.00
2019-06-10T23:22:06.005Z,101600.00
2019-06-10T23:24:39.687Z,101594.00
2019-06-10T23:27:13.396Z,101587.00
2019-06-10T23:29:49.805Z,101589.00
2019-06-10T23:32:24.098Z,101587.00
2019-06-10T23:34:58.286Z,101580.00
2019-06-10T23:37:32.655Z,101585.00
2019-06-10T23:40:06.308Z,101581.00
2019-06-10T23:42:40.905Z,101574.00
2019-06-10T23:45:14.630Z,101567.00
2019-06-10T23:47:48.326Z,101573.00
2019-06-10T23:50:22.599Z,101560.00
2019-06-10T23:53:02.081Z,101560.00
2019-06-10T23:55:32.013Z,101555.00
2019-06-10T23:58:05.641Z,101549.00
